sensor_id;sensor_type;location;lat;lon;timestamp;noise_LAeq;noise_LA_min;noise_LA_max;noise_LA01;noise_LA95
48967;Laerm;46511;53.148;8.204;2023-03-14T00:00:29;43.81;39.34;59.29;;
48967;Laerm;46511;53.148;8.204;2023-03-14T00:03:00;43.94;38.74;62.39;;
48967;Laerm;46511;53.148;8.204;2023-03-14T00:05:31;47.64;38.37;73.90;;
48967;Laerm;46511;53.148;8.204;2023-03-14T00:08:03;47.41;35.66;76.00;;
48967;Laerm;46511;53.148;8.204;2023-03-14T00:10:36;43.24;38.52;60.97;;
48967;Laerm;46511;53.148;8.204;2023-03-14T00:13:07;43.34;37.52;60.93;;
48967;Laerm;46511;53.148;8.204;2023-03-14T00:15:39;46.50;36.69;67.04;;
48967;Laerm;46511;53.148;8.204;2023-03-14T00:18:10;43.34;38.95;59.83;;
48967;Laerm;46511;53.148;8.204;2023-03-14T00:20:41;44.58;38.21;59.78;;
48967;Laerm;46511;53.148;8.204;2023-03-14T00:23:12;45.22;39.34;64.52;;
48967;Laerm;46511;53.148;8.204;2023-03-14T00:25:44;46.55;39.08;65.98;;
48967;Laerm;46511;53.148;8.204;2023-03-14T00:28:15;50.72;37.70;75.64;;
48967;Laerm;46511;53.148;8.204;2023-03-14T00:30:46;52.54;36.20;69.75;;
48967;Laerm;46511;53.148;8.204;2023-03-14T00:33:17;45.84;37.70;67.19;;
48967;Laerm;46511;53.148;8.204;2023-03-14T00:35:53;45.62;38.02;61.24;;
48967;Laerm;46511;53.148;8.204;2023-03-14T00:38:26;43.78;38.52;59.35;;
48967;Laerm;46511;53.148;8.204;2023-03-14T00:40:57;43.07;38.37;56.34;;
48967;Laerm;46511;53.148;8.204;2023-03-14T00:43:29;45.30;38.05;64.80;;
48967;Laerm;46511;53.148;8.204;2023-03-14T00:46:00;50.97;38.37;72.67;;
48967;Laerm;46511;53.148;8.204;2023-03-14T00:48:32;44.37;38.37;65.37;;
48967;Laerm;46511;53.148;8.204;2023-03-14T00:51:04;46.01;37.52;64.24;;
48967;Laerm;46511;53.148;8.204;2023-03-14T00:53:37;46.81;36.20;67.09;;
48967;Laerm;46511;53.148;8.204;2023-03-14T00:56:11;44.38;37.52;63.79;;
48967;Laerm;46511;53.148;8.204;2023-03-14T00:58:43;45.22;37.52;62.81;;
48967;Laerm;46511;53.148;8.204;2023-03-14T01:01:18;45.03;39.08;62.78;;
48967;Laerm;46511;53.148;8.204;2023-03-14T01:03:54;50.82;39.92;65.24;;
48967;Laerm;46511;53.148;8.204;2023-03-14T01:06:27;45.35;38.52;63.77;;
48967;Laerm;46511;53.148;8.204;2023-03-14T01:08:59;49.96;39.21;70.10;;
48967;Laerm;46511;53.148;8.204;2023-03-14T01:11:33;45.89;37.88;68.53;;
48967;Laerm;46511;53.148;8.204;2023-03-14T01:14:05;43.66;35.94;62.43;;
48967;Laerm;46511;53.148;8.204;2023-03-14T01:16:36;44.92;37.32;62.59;;
48967;Laerm;46511;53.148;8.204;2023-03-14T01:19:09;42.85;38.05;54.37;;
48967;Laerm;46511;53.148;8.204;2023-03-14T01:21:40;42.23;37.52;53.28;;
48967;Laerm;46511;53.148;8.204;2023-03-14T01:24:11;42.02;37.32;56.64;;
48967;Laerm;46511;53.148;8.204;2023-03-14T01:26:43;44.23;35.36;63.84;;
48967;Laerm;46511;53.148;8.204;2023-03-14T01:29:14;49.70;36.91;64.41;;
48967;Laerm;46511;53.148;8.204;2023-03-14T01:31:45;46.92;37.32;68.99;;
48967;Laerm;46511;53.148;8.204;2023-03-14T01:34:16;43.92;36.69;66.51;;
48967;Laerm;46511;53.148;8.204;2023-03-14T01:36:48;44.04;38.05;67.59;;
48967;Laerm;46511;53.148;8.204;2023-03-14T01:39:19;43.70;37.32;63.92;;
48967;Laerm;46511;53.148;8.204;2023-03-14T01:41:50;44.48;37.88;63.72;;
48967;Laerm;46511;53.148;8.204;2023-03-14T01:44:22;44.77;38.05;67.02;;
48967;Laerm;46511;53.148;8.204;2023-03-14T01:46:53;44.08;38.05;59.18;;
48967;Laerm;46511;53.148;8.204;2023-03-14T01:49:28;47.44;36.69;70.18;;
48967;Laerm;46511;53.148;8.204;2023-03-14T01:52:09;43.29;37.70;58.67;;
48967;Laerm;46511;53.148;8.204;2023-03-14T01:54:46;47.52;37.70;69.36;;
48967;Laerm;46511;53.148;8.204;2023-03-14T01:57:23;52.88;37.88;75.94;;
48967;Laerm;46511;53.148;8.204;2023-03-14T01:59:59;63.58;39.58;75.70;;
48967;Laerm;46511;53.148;8.204;2023-03-14T02:02:31;48.57;39.21;65.35;;
48967;Laerm;46511;53.148;8.204;2023-03-14T02:05:03;49.26;40.13;67.44;;
48967;Laerm;46511;53.148;8.204;2023-03-14T02:08:11;53.37;37.32;75.91;;
48967;Laerm;46511;53.148;8.204;2023-03-14T02:10:47;50.35;36.91;72.97;;
48967;Laerm;46511;53.148;8.204;2023-03-14T02:13:20;51.02;36.69;69.87;;
48967;Laerm;46511;53.148;8.204;2023-03-14T02:15:52;50.01;39.46;71.58;;
48967;Laerm;46511;53.148;8.204;2023-03-14T02:18:23;46.61;38.67;65.02;;
48967;Laerm;46511;53.148;8.204;2023-03-14T02:21:19;46.32;37.52;68.64;;
48967;Laerm;46511;53.148;8.204;2023-03-14T02:24:08;53.55;38.37;79.63;;
48967;Laerm;46511;53.148;8.204;2023-03-14T02:27:06;53.58;39.21;74.20;;
48967;Laerm;46511;53.148;8.204;2023-03-14T02:29:44;52.54;38.21;74.20;;
48967;Laerm;46511;53.148;8.204;2023-03-14T02:32:18;48.96;37.32;68.50;;
48967;Laerm;46511;53.148;8.204;2023-03-14T02:34:55;49.32;37.52;67.97;;
48967;Laerm;46511;53.148;8.204;2023-03-14T02:37:35;50.60;39.21;70.39;;
48967;Laerm;46511;53.148;8.204;2023-03-14T02:40:08;59.90;41.14;83.99;;
48967;Laerm;46511;53.148;8.204;2023-03-14T02:42:39;56.00;43.68;85.15;;
48967;Laerm;46511;53.148;8.204;2023-03-14T02:47:45;52.18;41.22;72.71;;
48967;Laerm;46511;53.148;8.204;2023-03-14T02:50:22;63.91;42.41;80.84;;
48967;Laerm;46511;53.148;8.204;2023-03-14T02:52:55;62.78;44.19;79.93;;
48967;Laerm;46511;53.148;8.204;2023-03-14T02:55:27;55.78;42.53;76.93;;
48967;Laerm;46511;53.148;8.204;2023-03-14T02:57:58;50.69;42.16;71.65;;
48967;Laerm;46511;53.148;8.204;2023-03-14T03:00:29;54.02;41.06;76.12;;
48967;Laerm;46511;53.148;8.204;2023-03-14T03:03:01;51.21;42.41;72.49;;
48967;Laerm;46511;53.148;8.204;2023-03-14T03:05:33;61.08;41.30;90.19;;
48967;Laerm;46511;53.148;8.204;2023-03-14T03:08:04;69.93;45.42;94.71;;
48967;Laerm;46511;53.148;8.204;2023-03-14T03:10:35;56.07;44.23;78.56;;
48967;Laerm;46511;53.148;8.204;2023-03-14T03:13:07;60.33;44.03;86.85;;
48967;Laerm;46511;53.148;8.204;2023-03-14T03:15:38;54.72;43.49;78.20;;
48967;Laerm;46511;53.148;8.204;2023-03-14T03:18:09;53.29;43.77;75.80;;
48967;Laerm;46511;53.148;8.204;2023-03-14T03:20:41;59.54;47.24;74.56;;
48967;Laerm;46511;53.148;8.204;2023-03-14T03:23:12;52.53;42.88;72.63;;
48967;Laerm;46511;53.148;8.204;2023-03-14T03:25:51;50.27;43.14;68.38;;
48967;Laerm;46511;53.148;8.204;2023-03-14T03:28:22;50.33;43.54;66.40;;
48967;Laerm;46511;53.148;8.204;2023-03-14T03:30:54;50.78;42.98;68.71;;
48967;Laerm;46511;53.148;8.204;2023-03-14T03:33:25;49.85;42.98;62.93;;
48967;Laerm;46511;53.148;8.204;2023-03-14T03:35:56;52.15;42.53;65.70;;
48967;Laerm;46511;53.148;8.204;2023-03-14T03:38:28;54.17;42.76;68.44;;
48967;Laerm;46511;53.148;8.204;2023-03-14T03:41:02;49.18;41.82;63.57;;
48967;Laerm;46511;53.148;8.204;2023-03-14T03:43:33;49.46;42.71;64.18;;
48967;Laerm;46511;53.148;8.204;2023-03-14T03:46:06;49.91;42.65;65.32;;
48967;Laerm;46511;53.148;8.204;2023-03-14T03:48:37;50.69;42.16;69.22;;
48967;Laerm;46511;53.148;8.204;2023-03-14T03:51:15;50.20;43.04;65.16;;
48967;Laerm;46511;53.148;8.204;2023-03-14T03:53:46;50.38;43.44;68.14;;
48967;Laerm;46511;53.148;8.204;2023-03-14T03:56:18;51.69;43.19;70.78;;
48967;Laerm;46511;53.148;8.204;2023-03-14T03:58:49;52.63;43.63;73.50;;
48967;Laerm;46511;53.148;8.204;2023-03-14T04:01:20;50.58;43.86;68.10;;
48967;Laerm;46511;53.148;8.204;2023-03-14T04:03:51;54.27;43.04;78.43;;
48967;Laerm;46511;53.148;8.204;2023-03-14T04:06:23;53.88;43.19;66.21;;
48967;Laerm;46511;53.148;8.204;2023-03-14T04:08:54;54.42;44.15;76.88;;
48967;Laerm;46511;53.148;8.204;2023-03-14T04:11:25;51.11;44.76;66.36;;
48967;Laerm;46511;53.148;8.204;2023-03-14T04:13:56;54.00;44.23;72.75;;
48967;Laerm;46511;53.148;8.204;2023-03-14T04:16:28;55.39;43.81;74.37;;
48967;Laerm;46511;53.148;8.204;2023-03-14T04:19:01;54.16;44.62;73.51;;
48967;Laerm;46511;53.148;8.204;2023-03-14T04:21:32;58.90;44.03;77.19;;
48967;Laerm;46511;53.148;8.204;2023-03-14T04:24:03;52.33;44.58;69.25;;
48967;Laerm;46511;53.148;8.204;2023-03-14T04:26:35;54.37;44.15;70.90;;
48967;Laerm;46511;53.148;8.204;2023-03-14T04:29:06;54.57;44.47;69.14;;
48967;Laerm;46511;53.148;8.204;2023-03-14T04:31:37;56.10;44.69;73.29;;
48967;Laerm;46511;53.148;8.204;2023-03-14T04:34:08;58.47;45.46;78.52;;
48967;Laerm;46511;53.148;8.204;2023-03-14T04:36:40;57.42;44.76;74.59;;
48967;Laerm;46511;53.148;8.204;2023-03-14T04:39:11;56.77;45.27;74.93;;
48967;Laerm;46511;53.148;8.204;2023-03-14T04:41:44;58.21;45.20;71.14;;
48967;Laerm;46511;53.148;8.204;2023-03-14T04:44:15;56.15;45.69;77.63;;
48967;Laerm;46511;53.148;8.204;2023-03-14T04:46:46;56.03;46.30;79.38;;
48967;Laerm;46511;53.148;8.204;2023-03-14T04:49:18;55.40;45.99;74.65;;
48967;Laerm;46511;53.148;8.204;2023-03-14T04:51:49;55.29;45.72;69.03;;
48967;Laerm;46511;53.148;8.204;2023-03-14T04:54:22;59.64;45.42;80.89;;
48967;Laerm;46511;53.148;8.204;2023-03-14T04:56:53;54.01;45.30;77.41;;
48967;Laerm;46511;53.148;8.204;2023-03-14T04:59:19;54.62;45.04;71.86;;
48967;Laerm;46511;53.148;8.204;2023-03-14T05:01:50;60.77;44.94;79.19;;
48967;Laerm;46511;53.148;8.204;2023-03-14T05:04:22;59.19;45.89;76.19;;
48967;Laerm;46511;53.148;8.204;2023-03-14T05:06:53;54.92;46.30;71.94;;
48967;Laerm;46511;53.148;8.204;2023-03-14T05:09:24;56.52;46.38;72.08;;
48967;Laerm;46511;53.148;8.204;2023-03-14T05:11:55;57.75;45.42;75.44;;
48967;Laerm;46511;53.148;8.204;2023-03-14T05:14:27;57.27;45.14;76.12;;
48967;Laerm;46511;53.148;8.204;2023-03-14T05:16:59;55.62;46.20;77.20;;
48967;Laerm;46511;53.148;8.204;2023-03-14T05:19:30;61.01;47.18;79.97;;
48967;Laerm;46511;53.148;8.204;2023-03-14T05:22:02;59.60;46.30;77.29;;
48967;Laerm;46511;53.148;8.204;2023-03-14T05:24:33;53.87;46.64;67.66;;
48967;Laerm;46511;53.148;8.204;2023-03-14T05:27:05;58.27;46.33;75.70;;
48967;Laerm;46511;53.148;8.204;2023-03-14T05:29:36;55.28;46.50;73.74;;
48967;Laerm;46511;53.148;8.204;2023-03-14T05:32:07;51.21;46.23;63.78;;
48967;Laerm;46511;53.148;8.204;2023-03-14T05:34:38;58.19;46.59;74.70;;
48967;Laerm;46511;53.148;8.204;2023-03-14T05:37:10;54.89;46.05;74.51;;
48967;Laerm;46511;53.148;8.204;2023-03-14T05:39:41;59.43;47.26;71.88;;
48967;Laerm;46511;53.148;8.204;2023-03-14T05:42:12;54.91;47.52;74.09;;
48967;Laerm;46511;53.148;8.204;2023-03-14T05:44:44;60.30;48.96;77.00;;
48967;Laerm;46511;53.148;8.204;2023-03-14T05:47:15;53.99;47.22;66.41;;
48967;Laerm;46511;53.148;8.204;2023-03-14T05:49:47;56.44;47.42;69.97;;
48967;Laerm;46511;53.148;8.204;2023-03-14T05:52:18;56.54;48.21;66.70;;
48967;Laerm;46511;53.148;8.204;2023-03-14T05:54:49;55.80;47.72;69.73;;
48967;Laerm;46511;53.148;8.204;2023-03-14T05:57:20;58.77;48.54;73.35;;
48967;Laerm;46511;53.148;8.204;2023-03-14T05:59:51;62.50;47.84;78.46;;
48967;Laerm;46511;53.148;8.204;2023-03-14T06:02:23;58.53;47.00;71.88;;
48967;Laerm;46511;53.148;8.204;2023-03-14T06:04:54;59.23;48.55;72.74;;
48967;Laerm;46511;53.148;8.204;2023-03-14T06:07:25;61.79;48.18;83.77;;
48967;Laerm;46511;53.148;8.204;2023-03-14T06:09:57;59.51;47.08;71.11;;
48967;Laerm;46511;53.148;8.204;2023-03-14T06:12:29;57.39;47.84;66.82;;
48967;Laerm;46511;53.148;8.204;2023-03-14T06:15:00;59.88;48.29;80.05;;
48967;Laerm;46511;53.148;8.204;2023-03-14T06:17:32;58.87;48.31;71.21;;
48967;Laerm;46511;53.148;8.204;2023-03-14T06:20:04;58.95;47.83;72.07;;
48967;Laerm;46511;53.148;8.204;2023-03-14T06:22:35;61.95;48.81;83.18;;
48967;Laerm;46511;53.148;8.204;2023-03-14T06:25:07;58.20;48.74;78.08;;
48967;Laerm;46511;53.148;8.204;2023-03-14T06:27:38;60.54;48.77;76.40;;
48967;Laerm;46511;53.148;8.204;2023-03-14T06:30:11;59.49;48.90;74.55;;
48967;Laerm;46511;53.148;8.204;2023-03-14T06:32:42;61.40;50.02;73.76;;
48967;Laerm;46511;53.148;8.204;2023-03-14T06:35:13;59.58;48.96;74.51;;
48967;Laerm;46511;53.148;8.204;2023-03-14T06:37:45;60.12;49.07;78.96;;
48967;Laerm;46511;53.148;8.204;2023-03-14T06:40:16;61.02;49.45;74.46;;
48967;Laerm;46511;53.148;8.204;2023-03-14T06:42:49;62.34;49.23;76.00;;
48967;Laerm;46511;53.148;8.204;2023-03-14T06:45:20;59.70;48.23;73.77;;
48967;Laerm;46511;53.148;8.204;2023-03-14T06:47:51;58.58;49.50;69.37;;
48967;Laerm;46511;53.148;8.204;2023-03-14T06:50:22;63.77;51.86;81.93;;
48967;Laerm;46511;53.148;8.204;2023-03-14T06:52:54;61.33;50.87;76.53;;
48967;Laerm;46511;53.148;8.204;2023-03-14T06:55:25;62.34;51.10;72.95;;
48967;Laerm;46511;53.148;8.204;2023-03-14T06:57:57;61.84;52.68;79.25;;
48967;Laerm;46511;53.148;8.204;2023-03-14T07:00:28;60.62;49.83;75.75;;
48967;Laerm;46511;53.148;8.204;2023-03-14T07:02:59;61.54;49.29;74.42;;
48967;Laerm;46511;53.148;8.204;2023-03-14T07:05:30;60.01;49.08;76.17;;
48967;Laerm;46511;53.148;8.204;2023-03-14T07:08:02;61.75;49.59;78.33;;
48967;Laerm;46511;53.148;8.204;2023-03-14T07:10:33;60.91;49.79;72.72;;
48967;Laerm;46511;53.148;8.204;2023-03-14T07:13:05;61.80;50.57;74.08;;
48967;Laerm;46511;53.148;8.204;2023-03-14T07:15:36;62.64;51.54;79.37;;
48967;Laerm;46511;53.148;8.204;2023-03-14T07:18:07;60.84;52.04;76.08;;
48967;Laerm;46511;53.148;8.204;2023-03-14T07:20:39;62.59;50.04;80.85;;
48967;Laerm;46511;53.148;8.204;2023-03-14T07:23:10;61.05;50.35;74.38;;
48967;Laerm;46511;53.148;8.204;2023-03-14T07:25:41;59.94;51.03;71.81;;
48967;Laerm;46511;53.148;8.204;2023-03-14T07:28:13;64.56;52.60;82.58;;
48967;Laerm;46511;53.148;8.204;2023-03-14T07:30:46;63.87;50.70;84.54;;
48967;Laerm;46511;53.148;8.204;2023-03-14T07:33:18;63.59;50.43;81.56;;
48967;Laerm;46511;53.148;8.204;2023-03-14T07:35:50;60.49;50.04;79.04;;
48967;Laerm;46511;53.148;8.204;2023-03-14T07:38:21;64.61;51.19;84.47;;
48967;Laerm;46511;53.148;8.204;2023-03-14T07:41:05;63.56;50.60;80.15;;
48967;Laerm;46511;53.148;8.204;2023-03-14T07:43:37;61.73;53.40;72.47;;
48967;Laerm;46511;53.148;8.204;2023-03-14T07:46:08;61.20;49.44;73.54;;
48967;Laerm;46511;53.148;8.204;2023-03-14T07:48:39;60.35;50.50;75.31;;
48967;Laerm;46511;53.148;8.204;2023-03-14T07:51:11;59.74;50.92;73.87;;
48967;Laerm;46511;53.148;8.204;2023-03-14T07:53:42;60.46;50.11;73.76;;
48967;Laerm;46511;53.148;8.204;2023-03-14T07:56:14;59.36;50.59;79.03;;
48967;Laerm;46511;53.148;8.204;2023-03-14T07:58:45;60.47;49.74;75.02;;
48967;Laerm;46511;53.148;8.204;2023-03-14T08:01:11;60.08;51.14;80.95;;
48967;Laerm;46511;53.148;8.204;2023-03-14T08:03:42;59.71;49.91;73.52;;
48967;Laerm;46511;53.148;8.204;2023-03-14T08:06:14;59.13;49.93;73.94;;
48967;Laerm;46511;53.148;8.204;2023-03-14T08:08:45;60.41;50.35;76.61;;
48967;Laerm;46511;53.148;8.204;2023-03-14T08:11:16;58.49;49.56;76.25;;
48967;Laerm;46511;53.148;8.204;2023-03-14T08:13:47;62.91;48.21;81.41;;
48967;Laerm;46511;53.148;8.204;2023-03-14T08:16:21;62.09;48.07;77.63;;
48967;Laerm;46511;53.148;8.204;2023-03-14T08:18:52;61.56;50.34;77.87;;
48967;Laerm;46511;53.148;8.204;2023-03-14T08:21:23;62.27;50.32;76.30;;
48967;Laerm;46511;53.148;8.204;2023-03-14T08:23:54;64.00;48.54;77.72;;
48967;Laerm;46511;53.148;8.204;2023-03-14T08:26:26;59.30;48.92;76.50;;
48967;Laerm;46511;53.148;8.204;2023-03-14T08:28:57;57.46;47.83;72.24;;
48967;Laerm;46511;53.148;8.204;2023-03-14T08:31:28;58.20;48.16;69.01;;
48967;Laerm;46511;53.148;8.204;2023-03-14T08:33:59;58.00;47.70;67.74;;
48967;Laerm;46511;53.148;8.204;2023-03-14T08:36:31;56.23;47.81;70.04;;
48967;Laerm;46511;53.148;8.204;2023-03-14T08:39:02;60.76;48.42;72.07;;
48967;Laerm;46511;53.148;8.204;2023-03-14T08:41:35;60.34;47.44;73.66;;
48967;Laerm;46511;53.148;8.204;2023-03-14T08:44:11;58.99;46.89;69.30;;
48967;Laerm;46511;53.148;8.204;2023-03-14T08:46:42;58.37;45.97;67.14;;
48967;Laerm;46511;53.148;8.204;2023-03-14T08:49:13;56.67;46.33;66.38;;
48967;Laerm;46511;53.148;8.204;2023-03-14T08:51:45;58.32;46.15;70.80;;
48967;Laerm;46511;53.148;8.204;2023-03-14T08:54:17;57.93;45.66;68.30;;
48967;Laerm;46511;53.148;8.204;2023-03-14T08:56:48;60.30;48.74;69.22;;
48967;Laerm;46511;53.148;8.204;2023-03-14T08:59:19;59.38;48.52;69.67;;
48967;Laerm;46511;53.148;8.204;2023-03-14T09:01:50;60.17;48.02;77.95;;
48967;Laerm;46511;53.148;8.204;2023-03-14T09:04:22;60.47;48.58;69.72;;
48967;Laerm;46511;53.148;8.204;2023-03-14T09:06:53;59.74;49.66;75.76;;
48967;Laerm;46511;53.148;8.204;2023-03-14T09:09:25;60.60;50.40;69.72;;
48967;Laerm;46511;53.148;8.204;2023-03-14T09:11:58;60.92;51.11;76.46;;
48967;Laerm;46511;53.148;8.204;2023-03-14T09:14:29;56.51;49.80;65.81;;
48967;Laerm;46511;53.148;8.204;2023-03-14T09:17:00;58.23;47.63;72.98;;
48967;Laerm;46511;53.148;8.204;2023-03-14T09:19:31;61.22;49.07;71.49;;
48967;Laerm;46511;53.148;8.204;2023-03-14T09:22:03;60.82;47.50;74.50;;
48967;Laerm;46511;53.148;8.204;2023-03-14T09:24:34;60.72;49.59;71.83;;
48967;Laerm;46511;53.148;8.204;2023-03-14T09:27:05;59.01;50.02;77.54;;
48967;Laerm;46511;53.148;8.204;2023-03-14T09:29:36;62.19;52.06;72.21;;
48967;Laerm;46511;53.148;8.204;2023-03-14T09:32:08;62.14;48.90;74.13;;
48967;Laerm;46511;53.148;8.204;2023-03-14T09:34:39;61.39;48.70;71.38;;
48967;Laerm;46511;53.148;8.204;2023-03-14T09:37:11;61.19;50.28;73.77;;
48967;Laerm;46511;53.148;8.204;2023-03-14T09:39:42;60.60;50.33;74.98;;
48967;Laerm;46511;53.148;8.204;2023-03-14T09:42:18;64.00;51.93;77.13;;
48967;Laerm;46511;53.148;8.204;2023-03-14T09:45:04;59.51;49.45;76.80;;
48967;Laerm;46511;53.148;8.204;2023-03-14T09:47:37;62.16;51.04;78.05;;
48967;Laerm;46511;53.148;8.204;2023-03-14T09:50:13;59.40;46.73;74.71;;
48967;Laerm;46511;53.148;8.204;2023-03-14T09:52:48;59.97;47.74;70.67;;
48967;Laerm;46511;53.148;8.204;2023-03-14T09:55:22;60.07;45.77;75.63;;
48967;Laerm;46511;53.148;8.204;2023-03-14T09:57:58;60.33;46.23;75.48;;
48967;Laerm;46511;53.148;8.204;2023-03-14T10:00:31;59.40;49.30;66.82;;
48967;Laerm;46511;53.148;8.204;2023-03-14T10:05:52;62.52;46.05;76.14;;
48967;Laerm;46511;53.148;8.204;2023-03-14T10:08:24;60.44;50.09;69.01;;
48967;Laerm;46511;53.148;8.204;2023-03-14T10:10:55;61.76;45.45;77.60;;
48967;Laerm;46511;53.148;8.204;2023-03-14T10:13:27;61.76;47.12;77.35;;
48967;Laerm;46511;53.148;8.204;2023-03-14T10:16:03;59.87;47.93;76.39;;
48967;Laerm;46511;53.148;8.204;2023-03-14T10:18:35;59.82;48.10;78.31;;
48967;Laerm;46511;53.148;8.204;2023-03-14T10:21:17;61.43;51.72;74.75;;
48967;Laerm;46511;53.148;8.204;2023-03-14T10:23:49;61.88;51.46;74.68;;
48967;Laerm;46511;53.148;8.204;2023-03-14T10:26:27;59.18;48.42;73.23;;
48967;Laerm;46511;53.148;8.204;2023-03-14T10:29:08;59.97;45.45;84.17;;
48967;Laerm;46511;53.148;8.204;2023-03-14T10:34:29;60.20;48.12;77.90;;
48967;Laerm;46511;53.148;8.204;2023-03-14T10:37:27;59.08;48.31;70.35;;
48967;Laerm;46511;53.148;8.204;2023-03-14T10:40:00;60.03;50.29;73.49;;
48967;Laerm;46511;53.148;8.204;2023-03-14T10:42:41;60.19;52.22;74.04;;
48967;Laerm;46511;53.148;8.204;2023-03-14T10:45:32;62.14;53.20;82.51;;
48967;Laerm;46511;53.148;8.204;2023-03-14T10:50:53;60.45;47.95;79.86;;
48967;Laerm;46511;53.148;8.204;2023-03-14T10:53:25;59.10;47.96;68.12;;
48967;Laerm;46511;53.148;8.204;2023-03-14T10:55:57;58.71;46.05;67.88;;
48967;Laerm;46511;53.148;8.204;2023-03-14T10:58:40;59.51;47.93;73.82;;
48967;Laerm;46511;53.148;8.204;2023-03-14T11:04:15;59.00;51.36;77.39;;
48967;Laerm;46511;53.148;8.204;2023-03-14T11:07:11;61.77;52.75;81.04;;
48967;Laerm;46511;53.148;8.204;2023-03-14T11:10:23;57.82;46.40;68.69;;
48967;Laerm;46511;53.148;8.204;2023-03-14T11:13:01;62.05;47.38;76.90;;
48967;Laerm;46511;53.148;8.204;2023-03-14T11:18:53;59.08;50.63;70.75;;
48967;Laerm;46511;53.148;8.204;2023-03-14T11:21:37;60.06;47.00;71.99;;
48967;Laerm;46511;53.148;8.204;2023-03-14T11:30:05;58.69;50.58;67.10;;
48967;Laerm;46511;53.148;8.204;2023-03-14T11:35:24;58.28;47.68;69.62;;
48967;Laerm;46511;53.148;8.204;2023-03-14T11:38:10;60.61;51.55;77.39;;
48967;Laerm;46511;53.148;8.204;2023-03-14T11:40:43;60.66;47.70;74.08;;
48967;Laerm;46511;53.148;8.204;2023-03-14T11:43:20;58.69;50.61;73.44;;
48967;Laerm;46511;53.148;8.204;2023-03-14T11:46:08;55.68;45.17;65.52;;
48967;Laerm;46511;53.148;8.204;2023-03-14T11:51:24;54.51;45.20;66.89;;
48967;Laerm;46511;53.148;8.204;2023-03-14T11:54:14;57.01;44.80;70.12;;
48967;Laerm;46511;53.148;8.204;2023-03-14T11:57:01;55.71;45.30;66.57;;
48967;Laerm;46511;53.148;8.204;2023-03-14T12:05:22;56.52;45.11;65.54;;
48967;Laerm;46511;53.148;8.204;2023-03-14T12:13:12;54.63;46.02;66.57;;
48967;Laerm;46511;53.148;8.204;2023-03-14T12:15:58;57.76;45.39;76.96;;
48967;Laerm;46511;53.148;8.204;2023-03-14T12:18:34;55.61;45.83;69.50;;
48967;Laerm;46511;53.148;8.204;2023-03-14T12:21:12;56.82;45.17;66.99;;
48967;Laerm;46511;53.148;8.204;2023-03-14T12:23:50;57.98;46.50;70.32;;
48967;Laerm;46511;53.148;8.204;2023-03-14T12:26:25;55.28;45.51;72.60;;
48967;Laerm;46511;53.148;8.204;2023-03-14T12:51:00;58.79;46.33;67.83;;
48967;Laerm;46511;53.148;8.204;2023-03-14T12:53:45;61.93;53.69;77.78;;
48967;Laerm;46511;53.148;8.204;2023-03-14T12:56:26;58.25;50.38;71.92;;
48967;Laerm;46511;53.148;8.204;2023-03-14T12:59:09;59.12;52.03;74.61;;
48967;Laerm;46511;53.148;8.204;2023-03-14T13:01:54;59.38;53.26;70.44;;
48967;Laerm;46511;53.148;8.204;2023-03-14T13:04:48;59.03;51.44;73.00;;
48967;Laerm;46511;53.148;8.204;2023-03-14T13:10:39;58.23;50.21;66.41;;
48967;Laerm;46511;53.148;8.204;2023-03-14T13:13:22;59.48;50.11;79.60;;
48967;Laerm;46511;53.148;8.204;2023-03-14T13:15:56;60.37;51.49;76.13;;
48967;Laerm;46511;53.148;8.204;2023-03-14T13:18:42;61.41;51.30;84.39;;
48967;Laerm;46511;53.148;8.204;2023-03-14T13:21:22;61.87;52.23;76.08;;
48967;Laerm;46511;53.148;8.204;2023-03-14T13:24:20;57.65;45.77;77.40;;
48967;Laerm;46511;53.148;8.204;2023-03-14T13:26:55;57.98;48.26;71.98;;
48967;Laerm;46511;53.148;8.204;2023-03-14T13:29:28;55.76;45.60;68.59;;
48967;Laerm;46511;53.148;8.204;2023-03-14T13:32:16;55.32;46.62;70.65;;
48967;Laerm;46511;53.148;8.204;2023-03-14T13:34:48;55.40;46.71;66.24;;
48967;Laerm;46511;53.148;8.204;2023-03-14T13:37:21;64.43;54.38;85.66;;
48967;Laerm;46511;53.148;8.204;2023-03-14T13:39:55;60.55;53.71;72.31;;
48967;Laerm;46511;53.148;8.204;2023-03-14T13:42:25;60.00;53.41;72.38;;
48967;Laerm;46511;53.148;8.204;2023-03-14T13:44:57;59.78;50.80;69.62;;
48967;Laerm;46511;53.148;8.204;2023-03-14T13:47:28;58.57;48.12;69.13;;
48967;Laerm;46511;53.148;8.204;2023-03-14T13:50:00;60.91;50.22;78.85;;
48967;Laerm;46511;53.148;8.204;2023-03-14T13:52:36;61.49;49.78;82.54;;
48967;Laerm;46511;53.148;8.204;2023-03-14T13:55:17;59.03;52.02;72.82;;
48967;Laerm;46511;53.148;8.204;2023-03-14T13:57:51;59.59;53.65;75.35;;
48967;Laerm;46511;53.148;8.204;2023-03-14T14:00:27;59.43;48.32;69.33;;
48967;Laerm;46511;53.148;8.204;2023-03-14T14:02:59;58.92;45.88;71.33;;
48967;Laerm;46511;53.148;8.204;2023-03-14T14:05:30;57.22;45.97;66.70;;
48967;Laerm;46511;53.148;8.204;2023-03-14T14:08:03;58.64;45.33;82.67;;
48967;Laerm;46511;53.148;8.204;2023-03-14T14:10:37;57.59;45.72;68.24;;
48967;Laerm;46511;53.148;8.204;2023-03-14T14:13:13;56.25;45.57;69.74;;
48967;Laerm;46511;53.148;8.204;2023-03-14T14:15:49;57.92;45.48;67.96;;
48967;Laerm;46511;53.148;8.204;2023-03-14T14:18:25;56.40;46.30;66.51;;
48967;Laerm;46511;53.148;8.204;2023-03-14T14:20:58;58.16;45.33;70.01;;
48967;Laerm;46511;53.148;8.204;2023-03-14T14:23:30;55.83;44.65;67.03;;
48967;Laerm;46511;53.148;8.204;2023-03-14T14:26:05;54.68;44.27;65.75;;
48967;Laerm;46511;53.148;8.204;2023-03-14T14:28:36;56.33;45.01;66.18;;
48967;Laerm;46511;53.148;8.204;2023-03-14T14:33:59;64.46;52.88;77.13;;
48967;Laerm;46511;53.148;8.204;2023-03-14T14:36:41;57.56;51.92;66.86;;
48967;Laerm;46511;53.148;8.204;2023-03-14T14:39:18;62.21;52.28;70.31;;
48967;Laerm;46511;53.148;8.204;2023-03-14T14:41:52;57.93;44.87;72.19;;
48967;Laerm;46511;53.148;8.204;2023-03-14T14:44:32;57.06;44.03;69.38;;
48967;Laerm;46511;53.148;8.204;2023-03-14T14:47:05;55.61;44.87;66.79;;
48967;Laerm;46511;53.148;8.204;2023-03-14T14:49:36;56.47;45.11;70.98;;
48967;Laerm;46511;53.148;8.204;2023-03-14T14:52:17;55.88;44.03;70.40;;
48967;Laerm;46511;53.148;8.204;2023-03-14T14:54:54;57.04;46.20;74.31;;
48967;Laerm;46511;53.148;8.204;2023-03-14T14:57:33;56.14;45.42;65.48;;
48967;Laerm;46511;53.148;8.204;2023-03-14T15:00:18;55.57;46.20;65.67;;
48967;Laerm;46511;53.148;8.204;2023-03-14T15:02:51;58.27;46.82;68.13;;
48967;Laerm;46511;53.148;8.204;2023-03-14T15:05:26;56.85;44.65;65.57;;
48967;Laerm;46511;53.148;8.204;2023-03-14T15:07:58;56.82;44.97;71.16;;
48967;Laerm;46511;53.148;8.204;2023-03-14T15:10:29;57.65;44.27;69.06;;
48967;Laerm;46511;53.148;8.204;2023-03-14T15:13:00;58.98;44.76;73.56;;
48967;Laerm;46511;53.148;8.204;2023-03-14T15:15:32;53.65;44.01;70.67;;
48967;Laerm;46511;53.148;8.204;2023-03-14T15:18:12;56.57;45.11;65.37;;
48967;Laerm;46511;53.148;8.204;2023-03-14T15:20:45;57.93;44.54;71.29;;
48967;Laerm;46511;53.148;8.204;2023-03-14T15:23:19;54.03;44.51;63.89;;
48967;Laerm;46511;53.148;8.204;2023-03-14T15:25:50;61.60;46.38;74.28;;
48967;Laerm;46511;53.148;8.204;2023-03-14T15:28:24;63.17;55.09;74.08;;